Time;durP1;ratioP1;P1;durP2;ratioP2;P2;SDS_P1;SDS_P2;PMS_P1;PMS_P2;Temp;Humidity;BMP_temperature;BMP_pressure;BME280_temperature;BME280_humidity;BME280_pressure;Samples;Min_cycle;Max_cycle;Signal;HPM_P1;HPM_P2
2023/05/15 00:00:01;;;;;;;;;34.75;27.50;;;;;-146.67;38.03;74959.13;5100772;27;61803;-79
2023/05/15 00:02:26;;;;;;;;;35.50;31.25;;;;;-146.67;38.14;74969.09;5083744;27;61962;-80
2023/05/15 00:04:52;;;;;;;;;33.50;29.00;;;;;-146.67;38.28;74987.06;5084042;27;61882;-79
2023/05/15 00:07:17;;;;;;;;;33.00;29.50;;;;;-146.67;38.17;74993.06;5083189;28;62142;-79
2023/05/15 00:09:43;;;;;;;;;34.50;29.00;;;;;-146.67;39.18;75005.03;5084839;28;61998;-79
2023/05/15 00:12:08;;;;;;;;;29.00;25.75;;;;;-146.67;38.62;74985.06;5083367;28;61919;-79
2023/05/15 00:14:34;;;;;;;;;30.50;25.00;;;;;-146.67;38.48;74985.06;5084619;28;61950;-80
2023/05/15 00:16:59;;;;;;;;;36.25;28.00;;;;;-146.67;38.37;74983.06;5083967;28;62318;-79
2023/05/15 00:19:25;;;;;;;;;37.50;32.00;;;;;-146.67;39.05;74987.06;5083110;28;61856;-79
2023/05/15 00:21:50;;;;;;;;;37.00;28.25;;;;;-146.67;38.93;75003.03;5083681;28;61991;-79
2023/05/15 00:24:15;;;;;;;;;31.00;25.25;;;;;-146.67;38.83;75011.03;5083965;28;61978;-79
2023/05/15 00:26:41;;;;;;;;;38.00;32.75;;;;;-146.67;39.38;75011.03;5084413;28;61880;-79
2023/05/15 00:29:06;;;;;;;;;33.25;31.00;;;;;-146.67;38.73;75005.03;5082904;28;61953;-79
2023/05/15 00:31:32;;;;;;;;;40.00;31.25;;;;;-146.67;38.93;75007.03;5083211;28;62102;-79
2023/05/15 00:33:57;;;;;;;;;33.00;26.75;;;;;-146.67;38.88;75005.03;5083495;28;61889;-79
2023/05/15 00:36:24;;;;;;;;;40.25;29.00;;;;;-146.67;39.35;75031.00;5099027;27;61773;-79
2023/05/15 00:38:50;;;;;;;;;40.50;34.75;;;;;-146.67;38.80;74989.06;5099676;27;62055;-79
2023/05/15 00:41:16;;;;;;;;;31.50;31.50;;;;;-146.67;38.54;74993.06;5083564;27;61742;-79
2023/05/15 00:43:42;;;;;;;;;42.25;30.50;;;;;-146.67;38.79;74995.06;5099336;27;61655;-79
2023/05/15 00:46:08;;;;;;;;;36.00;30.75;;;;;-146.67;39.21;74993.06;5082452;28;61770;-79
2023/05/15 00:48:34;;;;;;;;;32.50;23.50;;;;;-146.67;39.17;75001.06;5082935;28;62058;-79
2023/05/15 00:50:59;;;;;;;;;36.00;31.75;;;;;-146.67;39.04;74997.06;5081669;28;63605;-79
2023/05/15 00:53:28;;;;;;;;;39.50;32.25;;;;;-146.67;38.74;74999.06;5083435;27;61812;-79
2023/05/15 00:55:56;;;;;;;;;37.25;30.75;;;;;-146.67;39.00;75015.03;5099754;27;61817;-79
2023/05/15 00:58:22;;;;;;;;;38.25;27.00;;;;;-146.67;38.95;75033.00;5083747;27;61951;-79
2023/05/15 01:00:49;;;;;;;;;33.00;29.50;;;;;-146.67;38.91;75052.97;5082356;28;61805;-79
2023/05/15 01:03:16;;;;;;;;;42.75;30.75;;;;;-146.67;39.60;75054.97;5082555;28;61956;-79
2023/05/15 01:05:41;;;;;;;;;38.25;32.00;;;;;-146.67;39.91;75080.91;5082620;28;62404;-79
2023/05/15 01:08:42;;;;;;;;;40.75;36.00;;;;;-146.67;40.01;75082.91;5083435;28;61978;-78
2023/05/15 01:11:10;;;;;;;;;31.50;28.00;;;;;-146.67;39.29;75088.91;5073530;28;62017;-79
2023/05/15 01:13:36;;;;;;;;;41.50;35.00;;;;;-146.67;40.01;75102.88;5083472;27;61728;-79
2023/05/15 01:16:01;;;;;;;;;49.50;34.25;;;;;-146.67;40.36;75124.84;5082433;28;62133;-79
2023/05/15 01:18:31;;;;;;;;;50.00;36.75;;;;;-146.67;40.51;75118.84;5082758;27;61901;-79
2023/05/15 01:21:30;;;;;;;;;41.00;30.75;;;;;-146.67;40.39;75124.84;5080791;28;64607;-80
2023/05/15 01:24:30;;;;;;;;;31.75;23.25;;;;;-146.67;39.87;75134.81;5083098;28;62237;-79
2023/05/15 01:27:13;;;;;;;;;51.75;36.00;;;;;-146.67;40.26;75156.78;5083123;28;62190;-79
2023/05/15 01:29:38;;;;;;;;;42.25;26.75;;;;;-146.67;40.17;75162.78;5083502;28;62161;-79
2023/05/15 01:32:08;;;;;;;;;49.25;36.50;;;;;-146.67;40.14;75150.81;5082347;28;62793;-78
2023/05/15 01:34:56;;;;;;;;;38.25;28.75;;;;;-146.67;40.02;75164.78;5098703;27;61856;-79
2023/05/15 01:37:26;;;;;;;;;50.75;36.25;;;;;-146.67;40.07;75174.75;5098803;27;62756;-79
2023/05/15 01:39:59;;;;;;;;;38.50;27.50;;;;;-146.67;40.08;75174.75;5083927;27;61797;-79
2023/05/15 01:42:32;;;;;;;;;41.00;35.75;;;;;-146.67;40.28;75156.78;5082603;27;62147;-78
2023/05/15 01:45:04;;;;;;;;;47.50;35.25;;;;;-146.67;39.35;75128.84;5082654;28;61795;-79
2023/05/15 01:47:37;;;;;;;;;49.50;37.75;;;;;-146.67;40.01;75126.84;5081995;28;62029;-79
2023/05/15 01:50:05;;;;;;;;;52.25;39.00;;;;;-146.67;40.25;75140.81;5082832;28;62153;-79
2023/05/15 01:52:35;;;;;;;;;52.75;35.50;;;;;-146.67;39.58;75150.81;5097965;27;63715;-79
2023/05/15 01:55:03;;;;;;;;;50.25;39.00;;;;;-146.67;40.05;75150.81;5082499;27;61703;-79
2023/05/15 01:57:30;;;;;;;;;56.00;39.75;;;;;-146.67;39.62;75144.81;5082933;27;61818;-79
2023/05/15 01:59:57;;;;;;;;;38.00;31.00;;;;;-146.67;40.00;75154.78;5082966;27;62119;-79
2023/05/15 02:02:23;;;;;;;;;50.50;39.25;;;;;-146.67;39.84;75148.81;5081122;28;62152;-79
2023/05/15 02:04:50;;;;;;;;;40.75;33.75;;;;;-146.67;39.74;75156.78;5082243;27;61693;-79
2023/05/15 02:07:16;;;;;;;;;48.75;34.25;;;;;-146.67;40.11;75158.78;5082258;28;61975;-78
2023/05/15 02:09:42;;;;;;;;;40.75;35.75;;;;;-146.67;40.21;75172.78;5083025;28;61817;-79
2023/05/15 02:12:09;;;;;;;;;37.00;26.50;;;;;-146.67;40.05;75186.75;5081596;28;61920;-79
2023/05/15 02:14:36;;;;;;;;;56.50;35.50;;;;;-146.67;40.03;75186.75;5082730;27;62025;-79
2023/05/15 02:17:02;;;;;;;;;49.00;37.75;;;;;-146.67;40.84;75202.72;5096860;27;61950;-78
2023/05/15 02:19:28;;;;;;;;;53.50;31.25;;;;;-146.67;40.53;75178.75;5081030;28;61818;-78
2023/05/15 02:21:53;;;;;;;;;55.25;40.00;;;;;-146.67;40.14;75160.78;5081974;28;61834;-79
2023/05/15 02:24:19;;;;;;;;;47.25;38.75;;;;;-146.67;39.79;75182.75;5080927;28;61959;-79
2023/05/15 02:27:03;;;;;;;;;56.00;41.75;;;;;-146.67;40.28;75186.75;5082460;28;61751;-79
2023/05/15 02:29:50;;;;;;;;;59.25;42.00;;;;;-146.67;40.14;75178.75;5082825;28;61704;-79
2023/05/15 02:32:35;;;;;;;;;43.25;33.75;;;;;-146.67;40.17;75178.75;5081536;28;61861;-79
2023/05/15 02:35:23;;;;;;;;;49.50;35.75;;;;;-146.67;39.90;75194.72;5069498;28;61770;-79
2023/05/15 02:37:52;;;;;;;;;50.50;34.75;;;;;-146.67;40.40;75202.72;5081159;28;61830;-79
2023/05/15 02:40:20;;;;;;;;;36.50;29.50;;;;;-146.67;40.48;75214.69;5082266;28;61757;-79
2023/05/15 02:42:47;;;;;;;;;61.75;44.25;;;;;-146.67;40.87;75238.66;5080324;28;63893;-79
2023/05/15 02:45:13;;;;;;;;;42.00;33.25;;;;;-146.67;40.47;75238.66;5081752;28;62199;-79
2023/05/15 02:47:39;;;;;;;;;43.00;34.00;;;;;-146.67;40.71;75222.69;5081448;28;61956;-79
2023/05/15 02:50:06;;;;;;;;;44.00;35.00;;;;;-146.67;40.80;75204.72;5081898;28;62101;-79
2023/05/15 02:52:33;;;;;;;;;57.25;40.75;;;;;-146.67;40.52;75196.72;5079792;28;62804;-79
2023/05/15 02:54:59;;;;;;;;;56.00;43.00;;;;;-146.67;40.70;75182.75;5081876;28;61945;-79
2023/05/15 02:57:25;;;;;;;;;45.75;32.25;;;;;-146.67;40.73;75182.75;5081703;28;61803;-79
2023/05/15 02:59:52;;;;;;;;;43.25;36.50;;;;;-146.67;40.22;75188.75;5082043;28;61925;-79
2023/05/15 03:02:18;;;;;;;;;45.00;33.00;;;;;-146.67;40.40;75194.72;5080771;28;61804;-79
2023/05/15 03:04:43;;;;;;;;;45.50;35.00;;;;;-146.67;40.42;75192.75;5081886;28;62065;-79
2023/05/15 03:07:08;;;;;;;;;53.00;39.25;;;;;-146.67;40.12;75198.72;5081370;28;61913;-79
2023/05/15 03:09:34;;;;;;;;;48.25;34.00;;;;;-146.67;40.31;75218.69;5081710;28;61821;-79
2023/05/15 03:11:59;;;;;;;;;35.00;26.75;;;;;-146.67;40.12;75208.72;5079269;28;63815;-79
2023/05/15 03:14:24;;;;;;;;;34.75;24.75;;;;;-146.67;40.01;75210.72;5082636;28;62156;-80
2023/05/15 03:16:50;;;;;;;;;57.50;36.50;;;;;-146.67;39.99;75210.72;5084717;28;61855;-78
2023/05/15 03:19:15;;;;;;;;;34.00;26.25;;;;;-146.67;39.75;75208.72;5078427;28;61813;-79
2023/05/15 03:21:41;;;;;;;;;42.25;33.50;;;;;-146.67;39.86;75216.69;5084489;28;62994;-79
2023/05/15 03:24:06;;;;;;;;;40.50;31.50;;;;;-146.67;39.46;75194.72;5085286;28;61929;-79
2023/05/15 03:26:32;;;;;;;;;43.75;34.25;;;;;-146.67;39.31;75216.69;5084969;28;62124;-79
2023/05/15 03:28:57;;;;;;;;;38.25;32.50;;;;;-146.67;39.46;75222.69;5098534;27;61924;-79
2023/05/15 03:31:22;;;;;;;;;44.75;33.00;;;;;-146.67;39.52;75218.69;5103483;27;63825;-79
2023/05/15 03:33:49;;;;;;;;;46.25;34.75;;;;;-146.67;39.79;75230.69;5105628;27;61892;-79
2023/05/15 03:36:15;;;;;;;;;52.25;36.50;;;;;-146.67;39.71;75220.69;5105349;27;61928;-79
2023/05/15 03:38:42;;;;;;;;;43.25;31.75;;;;;-146.67;39.15;75232.69;5105586;27;62102;-79
2023/05/15 03:41:08;;;;;;;;;45.00;36.00;;;;;-146.67;39.84;75236.66;5105002;27;61907;-78
2023/05/15 03:43:33;;;;;;;;;42.00;33.75;;;;;-146.67;39.94;75246.66;5104874;27;61963;-79
2023/05/15 03:45:59;;;;;;;;;47.25;34.75;;;;;-146.67;39.91;75248.66;5104255;27;62041;-79
2023/05/15 03:48:24;;;;;;;;;47.75;32.50;;;;;-146.67;39.74;75234.66;5103351;27;62221;-79
2023/05/15 03:50:51;;;;;;;;;42.00;34.75;;;;;-146.67;40.22;75272.59;5104398;27;62563;-78
2023/05/15 03:53:16;;;;;;;;;34.00;30.25;;;;;-146.67;40.04;75280.59;5104038;27;62137;-78
2023/05/15 03:55:42;;;;;;;;;32.00;27.75;;;;;-146.67;40.16;75284.59;5104988;27;61891;-78
2023/05/15 03:58:07;;;;;;;;;42.50;36.25;;;;;-146.67;39.79;75274.59;5103478;27;61922;-78
2023/05/15 04:00:33;;;;;;;;;47.75;31.50;;;;;-146.67;39.80;75262.63;5104613;27;61887;-78
2023/05/15 04:02:58;;;;;;;;;42.75;36.00;;;;;-146.67;40.42;75260.63;5104953;27;62083;-78
2023/05/15 04:05:24;;;;;;;;;48.50;36.75;;;;;-146.67;40.23;75258.63;5103557;27;62201;-78
2023/05/15 04:07:49;;;;;;;;;38.50;33.25;;;;;-146.67;40.26;75262.63;5104681;27;62019;-78
2023/05/15 04:10:15;;;;;;;;;56.25;37.50;;;;;-146.67;40.54;75268.63;5101982;27;64666;-78
2023/05/15 04:12:40;;;;;;;;;47.50;34.00;;;;;-146.67;40.48;75264.63;5084110;28;61986;-78
2023/05/15 04:15:23;;;;;;;;;37.00;33.25;;;;;-146.67;40.28;75262.63;5084846;28;62409;-78
2023/05/15 04:17:50;;;;;;;;;42.75;34.50;;;;;-146.67;40.33;75268.63;5084090;28;62132;-78
2023/05/15 04:20:18;;;;;;;;;54.50;37.50;;;;;-146.67;40.22;75266.63;5099215;27;63783;-78
2023/05/15 04:22:44;;;;;;;;;46.00;37.50;;;;;-146.67;40.23;75254.63;5082850;28;62088;-77
2023/05/15 04:25:11;;;;;;;;;44.75;31.00;;;;;-146.67;40.11;75236.66;5099895;27;61849;-78
2023/05/15 04:27:37;;;;;;;;;49.25;35.50;;;;;-146.67;40.08;75220.69;5084304;27;61983;-78
2023/05/15 04:30:06;;;;;;;;;43.00;33.25;;;;;-146.67;39.81;75206.72;5084190;28;61750;-78
2023/05/15 04:32:32;;;;;;;;;49.75;35.50;;;;;-146.67;40.11;75208.72;5082875;28;61936;-78
2023/05/15 04:35:01;;;;;;;;;48.75;33.50;;;;;-146.67;39.87;75200.72;5083686;28;61914;-78
2023/05/15 04:37:27;;;;;;;;;39.75;27.00;;;;;-146.67;40.19;75206.72;5083949;28;62102;-78
2023/05/15 04:39:53;;;;;;;;;42.50;34.75;;;;;-146.67;40.19;75216.69;5082177;28;64662;-78
2023/05/15 04:42:18;;;;;;;;;50.75;36.50;;;;;-146.67;40.31;75204.72;5074871;28;61898;-78
2023/05/15 04:44:43;;;;;;;;;44.25;34.25;;;;;-146.67;39.80;75192.75;5064047;28;61944;-78
2023/05/15 04:47:10;;;;;;;;;37.25;31.00;;;;;-146.67;39.84;75190.75;5063085;28;62213;-77
2023/05/15 04:49:36;;;;;;;;;36.75;31.75;;;;;-146.67;39.71;75176.75;5066032;28;61881;-78
2023/05/15 04:52:01;;;;;;;;;47.00;28.75;;;;;-146.67;39.52;75170.78;5099247;27;62023;-78
2023/05/15 04:54:26;;;;;;;;;52.00;36.75;;;;;-146.67;40.27;75182.75;5082697;28;62043;-77
2023/05/15 04:56:52;;;;;;;;;44.75;36.25;;;;;-146.67;40.40;75208.72;5116567;27;61763;-78
2023/05/15 04:59:17;;;;;;;;;46.00;34.00;;;;;-146.67;40.36;75186.75;5083504;27;62679;-78
2023/05/15 05:01:44;;;;;;;;;44.50;29.50;;;;;-146.67;40.17;75174.75;5084021;27;62271;-77
2023/05/15 05:04:09;;;;;;;;;40.50;30.00;;;;;-146.67;40.75;75208.72;5099507;27;62004;-78
2023/05/15 05:06:35;;;;;;;;;38.25;31.25;;;;;-146.67;40.52;75186.75;5083941;27;61854;-82
2023/05/15 05:09:00;;;;;;;;;43.50;33.00;;;;;-146.67;40.25;75160.78;5082872;27;61788;-82
2023/05/15 05:11:27;;;;;;;;;40.50;32.75;;;;;-146.67;40.08;75128.84;5083407;27;61980;-83
2023/05/15 05:13:59;;;;;;;;;49.00;34.00;;;;;-146.67;39.85;75126.84;5099606;27;61877;-82
2023/05/15 05:16:30;;;;;;;;;36.25;27.25;;;;;-146.67;39.46;75138.81;5082333;28;62422;-81
2023/05/15 05:19:00;;;;;;;;;49.50;35.00;;;;;-146.67;40.30;75136.81;5080503;28;61916;-81
2023/05/15 05:21:25;;;;;;;;;52.25;38.50;;;;;-146.67;40.33;75132.84;5083319;28;62112;-81
2023/05/15 05:23:51;;;;;;;;;35.25;31.75;;;;;-146.67;40.10;75146.81;5084912;28;61763;-81
2023/05/15 05:26:16;;;;;;;;;38.25;31.25;;;;;-146.67;40.59;75144.81;5081987;28;62170;-81
2023/05/15 05:28:41;;;;;;;;;46.50;30.75;;;;;-146.67;41.32;75148.81;5079996;28;63922;-82
2023/05/15 05:31:07;;;;;;;;;46.00;36.00;;;;;-146.67;41.12;75150.81;5082784;27;61719;-82
2023/05/15 05:33:32;;;;;;;;;37.75;33.00;;;;;-146.67;41.33;75150.81;5096178;27;62372;-83
2023/05/15 05:35:58;;;;;;;;;42.25;28.50;;;;;-146.67;40.95;75134.81;5103192;27;61878;-84
2023/05/15 05:38:25;;;;;;;;;43.25;33.75;;;;;-146.67;41.15;75148.81;5092279;27;64668;-83
2023/05/15 05:40:50;;;;;;;;;41.25;32.00;;;;;-146.67;41.52;75156.78;5081962;28;61959;-81
2023/05/15 05:43:16;;;;;;;;;32.75;28.75;;;;;-146.67;41.42;75136.81;5081244;28;61799;-86
2023/05/15 05:45:41;;;;;;;;;41.50;27.75;;;;;-146.67;41.31;75122.84;5082570;27;61758;-83
2023/05/15 05:48:06;;;;;;;;;47.50;35.75;;;;;-146.67;41.24;75118.84;5078667;28;65215;-85
2023/05/15 05:50:32;;;;;;;;;41.00;32.75;;;;;-146.67;41.75;75134.81;5081391;28;61803;-84
2023/05/15 05:52:57;;;;;;;;;41.00;34.50;;;;;-146.67;41.69;75120.84;5080920;28;61760;-79
2023/05/15 05:55:23;;;;;;;;;46.25;33.00;;;;;-146.67;41.32;75110.88;5083047;28;61749;-86
2023/05/15 05:57:48;;;;;;;;;40.75;33.00;;;;;-146.67;40.41;75112.88;5080786;28;63625;-86
2023/05/15 06:00:14;;;;;;;;;49.50;36.50;;;;;-146.67;41.40;75110.88;5082784;28;61829;-86
2023/05/15 06:02:39;;;;;;;;;50.75;36.25;;;;;-146.67;40.84;75122.84;5081530;28;62049;-86
2023/05/15 06:05:06;;;;;;;;;51.25;37.25;;;;;-146.67;41.45;75110.88;5089470;27;62123;-86
2023/05/15 06:07:32;;;;;;;;;48.50;38.25;;;;;-146.67;41.19;75104.88;5080942;27;64701;-86
2023/05/15 06:09:58;;;;;;;;;43.25;37.50;;;;;-146.67;40.83;75088.91;5081122;28;62081;-87
2023/05/15 06:12:23;;;;;;;;;48.00;34.25;;;;;-146.67;40.84;75076.94;5082338;27;61910;-87
2023/05/15 06:14:49;;;;;;;;;47.50;32.75;;;;;-146.67;40.70;75082.91;5080829;28;62437;-85
2023/05/15 06:17:14;;;;;;;;;38.25;34.50;;;;;-146.67;40.86;75092.91;5097144;27;63693;-86
2023/05/15 06:19:39;;;;;;;;;40.50;32.50;;;;;-146.67;40.89;75098.88;5081884;28;62002;-84
2023/05/15 06:22:05;;;;;;;;;54.75;38.25;;;;;-146.67;41.21;75106.88;5074688;27;62078;-86
2023/05/15 06:24:30;;;;;;;;;44.50;33.75;;;;;-146.67;40.67;75092.91;5062394;28;61953;-86
2023/05/15 06:26:56;;;;;;;;;40.75;34.00;;;;;-146.67;40.75;75086.91;5073702;28;63856;-85
2023/05/15 06:29:21;;;;;;;;;55.25;34.50;;;;;-146.67;40.70;75080.91;5082352;27;61939;-86
2023/05/15 06:31:47;;;;;;;;;36.50;23.00;;;;;-146.67;40.82;75078.91;5082106;27;62107;-86
2023/05/15 06:34:12;;;;;;;;;42.50;32.25;;;;;-146.67;41.02;75088.91;5115752;27;62198;-86
2023/05/15 06:36:38;;;;;;;;;49.25;39.25;;;;;-146.67;41.20;75080.91;5096774;27;64816;-86
2023/05/15 06:39:04;;;;;;;;;47.00;34.75;;;;;-146.67;40.80;75054.97;5097785;27;61935;-84
2023/05/15 06:41:30;;;;;;;;;37.00;29.25;;;;;-146.67;40.67;75039.00;5080906;28;61818;-84
2023/05/15 06:43:55;;;;;;;;;38.50;26.75;;;;;-146.67;40.13;75039.00;5094537;27;61996;-87
2023/05/15 06:46:20;;;;;;;;;36.25;30.00;;;;;-146.67;40.39;75029.00;5061292;28;62000;-85
2023/05/15 06:48:47;;;;;;;;;36.50;30.75;;;;;-146.67;40.63;75025.00;5075542;28;61897;-86
2023/05/15 06:51:12;;;;;;;;;26.25;26.25;;;;;-146.67;40.53;75027.00;5080126;28;61812;-86
2023/05/15 06:53:37;;;;;;;;;46.75;33.25;;;;;-146.67;40.45;75023.00;5081914;28;62024;-87
2023/05/15 06:56:03;;;;;;;;;39.00;32.00;;;;;-146.67;40.57;75007.03;5079476;28;63689;-86
2023/05/15 06:58:28;;;;;;;;;32.00;29.50;;;;;-146.67;40.58;75001.06;5097765;27;61839;-86
2023/05/15 07:00:54;;;;;;;;;44.50;31.50;;;;;-146.67;40.74;75009.03;5081763;27;61747;-83
2023/05/15 07:03:19;;;;;;;;;34.50;28.25;;;;;-146.67;40.27;74987.06;5088811;27;61908;-86
2023/05/15 07:05:44;;;;;;;;;46.00;28.50;;;;;-146.67;40.35;74985.06;5092994;27;63489;-85
2023/05/15 07:08:10;;;;;;;;;31.75;24.50;;;;;-146.67;40.37;74969.09;5089771;27;61896;-85
2023/05/15 07:10:35;;;;;;;;;27.75;20.25;;;;;-146.67;39.77;74949.13;5059936;28;61899;-85
2023/05/15 07:13:01;;;;;;;;;34.75;20.50;;;;;-146.67;39.64;74943.16;5059668;28;61924;-85
2023/05/15 07:15:26;;;;;;;;;33.00;23.00;;;;;-146.67;39.65;74929.16;5059326;28;63489;-84
2023/05/15 07:17:51;;;;;;;;;44.75;28.75;;;;;-146.67;39.91;74949.13;5065204;28;61964;-84
2023/05/15 07:20:17;;;;;;;;;38.25;31.25;;;;;-146.67;39.86;74939.16;5078605;28;62845;-85
2023/05/15 07:22:42;;;;;;;;;32.75;28.25;;;;;-146.67;39.81;74923.19;5097557;27;61767;-85
2023/05/15 07:25:08;;;;;;;;;30.50;26.75;;;;;-146.67;40.10;74929.16;5080705;28;63358;-85
2023/05/15 07:27:33;;;;;;;;;36.50;26.50;;;;;-146.67;39.73;74915.19;5081696;28;61729;-84
2023/05/15 07:30:00;;;;;;;;;27.25;21.75;;;;;-146.67;39.26;74875.25;5081857;28;61809;-85
2023/05/15 07:32:26;;;;;;;;;33.25;25.25;;;;;-146.67;39.14;74869.28;5081892;28;61788;-86
2023/05/15 07:34:52;;;;;;;;;30.50;23.50;;;;;-146.67;39.02;74871.25;5079238;28;63656;-85
2023/05/15 07:37:17;;;;;;;;;21.50;21.00;;;;;-146.67;39.23;74859.28;5076569;27;61921;-85
2023/05/15 07:39:42;;;;;;;;;41.00;26.00;;;;;-146.67;39.10;74847.31;5077126;28;61808;-85
2023/05/15 07:42:08;;;;;;;;;27.75;23.00;;;;;-146.67;39.15;74847.31;5061468;27;61860;-84
2023/05/15 07:44:33;;;;;;;;;41.50;29.50;;;;;-146.67;39.11;74845.31;5101692;27;61940;-83
2023/05/15 07:46:58;;;;;;;;;26.50;19.00;;;;;-146.67;38.87;74823.34;5101392;27;61945;-84
2023/05/15 07:49:24;;;;;;;;;35.50;25.00;;;;;-146.67;38.76;74827.34;5099941;27;61835;-84
2023/05/15 07:51:49;;;;;;;;;39.25;28.50;;;;;-146.67;38.79;74821.34;5097375;27;62102;-84
2023/05/15 07:54:14;;;;;;;;;30.25;21.00;;;;;-146.67;38.77;74831.34;5096079;27;63576;-84
2023/05/15 07:56:40;;;;;;;;;33.75;27.75;;;;;-146.67;38.98;74843.31;5081580;28;61950;-85
2023/05/15 07:59:06;;;;;;;;;26.75;25.00;;;;;-146.67;39.05;74847.31;5080002;28;61996;-85
2023/05/15 08:01:32;;;;;;;;;37.00;33.00;;;;;-146.67;39.12;74841.31;5082101;28;61833;-84
2023/05/15 08:03:57;;;;;;;;;34.50;29.50;;;;;-146.67;39.04;74849.31;5063727;28;61787;-84
2023/05/15 08:06:22;;;;;;;;;31.00;28.25;;;;;-146.67;39.26;74871.25;5063730;28;62576;-84
2023/05/15 08:08:48;;;;;;;;;49.50;33.00;;;;;-146.67;39.38;74865.28;5063024;28;62394;-84
2023/05/15 08:11:13;;;;;;;;;33.75;24.00;;;;;-146.67;39.41;74873.25;5080586;28;61739;-85
2023/05/15 08:13:38;;;;;;;;;29.25;18.75;;;;;-146.67;39.52;74875.25;5099587;27;64043;-84
2023/05/15 08:16:04;;;;;;;;;32.75;25.50;;;;;-146.67;39.59;74871.25;5100572;27;61994;-85
2023/05/15 08:18:30;;;;;;;;;37.00;29.00;;;;;-146.67;39.46;74861.28;5080811;28;61992;-84
2023/05/15 08:20:55;;;;;;;;;32.00;27.00;;;;;-146.67;39.33;74863.28;5082592;28;61936;-85
2023/05/15 08:23:20;;;;;;;;;28.75;24.00;;;;;-146.67;39.29;74849.31;5083984;28;61843;-84
2023/05/15 08:25:46;;;;;;;;;35.75;30.25;;;;;-146.67;39.22;74835.31;5084538;28;61921;-84
2023/05/15 08:28:11;;;;;;;;;43.75;33.75;;;;;-146.67;39.27;74847.31;5100285;27;62097;-84
2023/05/15 08:30:37;;;;;;;;;50.25;32.00;;;;;-146.67;39.12;74829.34;5084537;28;61751;-85
2023/05/15 08:33:02;;;;;;;;;35.75;29.75;;;;;-146.67;38.87;74805.38;5083615;28;61975;-84
2023/05/15 08:35:27;;;;;;;;;40.50;26.50;;;;;-146.67;38.83;74791.41;5082392;28;61943;-85
2023/05/15 08:37:53;;;;;;;;;45.75;33.00;;;;;-146.67;38.87;74755.47;5083133;28;62223;-85
2023/05/15 08:40:18;;;;;;;;;30.75;23.25;;;;;-146.67;38.51;74741.50;5084352;28;61984;-84
2023/05/15 08:42:48;;;;;;;;;41.50;27.75;;;;;-146.67;38.20;74719.53;5079281;27;63569;-85
2023/05/15 08:45:14;;;;;;;;;42.75;30.50;;;;;-146.67;37.91;74689.56;5083145;28;61914;-85
2023/05/15 08:47:41;;;;;;;;;40.50;34.50;;;;;-146.67;37.83;74675.59;5083070;27;62004;-84
2023/05/15 08:50:13;;;;;;;;;48.75;30.50;;;;;-146.67;37.44;74653.63;5099700;27;61911;-84
2023/05/15 08:52:41;;;;;;;;;40.75;32.75;;;;;-146.67;37.69;74617.69;5116088;27;63781;-85
2023/05/15 08:55:08;;;;;;;;;51.25;36.75;;;;;-146.67;37.04;74599.72;5084321;27;61863;-84
2023/05/15 08:57:34;;;;;;;;;40.50;32.25;;;;;-146.67;37.31;74593.75;5082434;28;61840;-84
2023/05/15 09:00:03;;;;;;;;;39.25;30.75;;;;;-146.67;36.93;74589.75;5084495;28;61839;-84
2023/05/15 09:02:28;;;;;;;;;39.25;30.50;;;;;-146.67;37.12;74585.75;5082921;27;62992;-84
2023/05/15 09:04:54;;;;;;;;;44.25;31.75;;;;;-146.67;37.03;74555.81;5082361;28;61722;-84
2023/05/15 09:07:19;;;;;;;;;30.25;27.00;;;;;-146.67;36.57;74543.84;5084180;28;61777;-84
2023/05/15 09:09:46;;;;;;;;;33.75;30.75;;;;;-146.67;36.54;74523.88;5083732;27;61759;-84
2023/05/15 09:12:15;;;;;;;;;26.50;23.50;;;;;-146.67;36.14;74527.84;5083248;28;61980;-85
2023/05/15 09:14:44;;;;;;;;;37.25;29.25;;;;;-146.67;36.40;74509.88;5082204;28;62222;-85
2023/05/15 09:17:13;;;;;;;;;35.00;29.00;;;;;-146.67;36.34;74489.94;5067859;28;61959;-85
2023/05/15 09:19:41;;;;;;;;;42.50;31.75;;;;;-146.67;36.17;74487.94;5072376;28;61817;-84
2023/05/15 09:22:16;;;;;;;;;35.00;29.25;;;;;-146.67;36.36;74507.91;5098475;27;63731;-84
2023/05/15 09:24:42;;;;;;;;;41.75;30.75;;;;;-146.67;36.52;74521.88;5099000;27;61737;-84
2023/05/15 09:27:08;;;;;;;;;44.75;31.75;;;;;-146.67;36.50;74515.88;5084263;27;61906;-85
2023/05/15 09:29:36;;;;;;;;;40.75;30.50;;;;;-146.67;36.59;74511.88;5061954;28;62131;-84
2023/05/15 09:32:14;;;;;;;;;49.00;35.25;;;;;-146.67;36.36;74499.91;5061109;28;64558;-83
2023/05/15 09:34:42;;;;;;;;;47.50;32.00;;;;;-146.67;35.96;74489.94;5061626;28;61958;-84
2023/05/15 09:37:27;;;;;;;;;41.00;31.50;;;;;-146.67;36.12;74465.97;5061616;28;62038;-85
2023/05/15 09:39:52;;;;;;;;;40.00;32.75;;;;;-146.67;35.95;74454.00;5063148;28;62029;-84
2023/05/15 09:42:18;;;;;;;;;40.50;33.00;;;;;-146.67;35.70;74456.00;5077884;28;64790;-84
2023/05/15 09:44:44;;;;;;;;;36.00;29.25;;;;;-146.67;35.87;74481.94;5062976;28;61876;-85
2023/05/15 09:47:11;;;;;;;;;52.75;35.00;;;;;-146.67;36.39;74487.94;5062294;28;61960;-85
2023/05/15 09:49:37;;;;;;;;;43.50;36.50;;;;;-146.67;36.48;74527.84;5065179;28;61953;-85
2023/05/15 09:52:06;;;;;;;;;52.25;33.50;;;;;-146.67;36.46;74533.84;5082074;28;61952;-85
2023/05/15 09:54:31;;;;;;;;;37.25;30.75;;;;;-146.67;36.78;74557.81;5083315;28;63114;-85
2023/05/15 09:57:07;;;;;;;;;50.25;35.75;;;;;-146.67;36.57;74547.81;5082966;28;61876;-84
2023/05/15 09:59:32;;;;;;;;;49.00;35.50;;;;;-146.67;36.58;74521.88;5081574;28;62108;-85
2023/05/15 10:01:58;;;;;;;;;48.25;36.25;;;;;-146.67;36.38;74521.88;5097780;27;64824;-84
2023/05/15 10:04:23;;;;;;;;;38.25;35.75;;;;;-146.67;36.42;74517.88;5098656;27;62234;-85
2023/05/15 10:06:49;;;;;;;;;35.25;26.75;;;;;-146.67;36.54;74507.91;5082382;28;61814;-84
2023/05/15 10:09:15;;;;;;;;;39.00;32.25;;;;;-146.67;36.31;74495.91;5083175;28;61919;-85
2023/05/15 10:11:42;;;;;;;;;38.50;28.00;;;;;-146.67;35.93;74461.97;5095811;27;63856;-85
2023/05/15 10:14:11;;;;;;;;;35.50;31.00;;;;;-146.67;35.71;74426.03;5077549;28;61880;-85
2023/05/15 10:16:38;;;;;;;;;40.00;32.75;;;;;-146.67;35.50;74424.03;5061648;28;61875;-85
2023/05/15 10:19:06;;;;;;;;;44.75;28.75;;;;;-146.67;35.29;74400.09;5065699;28;61829;-86
2023/05/15 10:21:33;;;;;;;;;42.75;30.75;;;;;-146.67;35.08;74400.09;5115521;27;63533;-86
2023/05/15 10:24:00;;;;;;;;;40.25;34.00;;;;;-146.67;35.16;74380.13;5109950;27;62062;-85
2023/05/15 10:26:37;;;;;;;;;45.75;33.00;;;;;-146.67;35.08;74370.16;5095014;27;62011;-85
2023/05/15 10:29:06;;;;;;;;;44.00;30.25;;;;;-146.67;35.24;74350.19;5060545;28;62080;-85
2023/05/15 10:31:33;;;;;;;;;54.00;36.75;;;;;-146.67;34.72;74298.28;5061862;28;61913;-85
2023/05/15 10:33:59;;;;;;;;;40.25;34.00;;;;;-146.67;34.31;74288.28;5062162;28;62284;-85
2023/05/15 10:36:26;;;;;;;;;42.00;29.00;;;;;-146.67;34.62;74280.31;5060483;28;61961;-85
2023/05/15 10:38:52;;;;;;;;;42.75;34.00;;;;;-146.67;34.57;74298.28;5062181;28;61770;-85
2023/05/15 10:41:20;;;;;;;;;47.25;35.00;;;;;-146.67;34.57;74306.25;5060287;28;63654;-85
2023/05/15 10:43:47;;;;;;;;;35.00;32.50;;;;;-146.67;34.78;74318.25;5060488;28;61969;-84
2023/05/15 10:46:15;;;;;;;;;52.75;34.00;;;;;-146.67;34.56;74290.28;5062081;28;61784;-84
2023/05/15 10:48:41;;;;;;;;;29.75;26.00;;;;;-146.67;34.39;74234.38;5061939;28;61837;-85
2023/05/15 10:51:17;;;;;;;;;55.00;36.75;;;;;-146.67;34.11;74198.47;5060797;28;63104;-85
2023/05/15 10:53:46;;;;;;;;;38.00;31.50;;;;;-146.67;34.18;74192.47;5060562;28;62084;-86
2023/05/15 10:56:18;;;;;;;;;44.50;32.50;;;;;-146.67;33.80;74198.47;5061896;28;61951;-86
2023/05/15 10:58:46;;;;;;;;;39.25;27.00;;;;;-146.67;34.22;74232.41;5061951;28;61881;-84
2023/05/15 11:01:25;;;;;;;;;28.00;21.00;;;;;-146.67;34.37;74264.34;5061123;28;62986;-84